Time;durP1;ratioP1;P1;durP2;ratioP2;P2;SDS_P1;SDS_P2;PMS_P1;PMS_P2;Temp;Humidity;BMP_temperature;BMP_pressure;BME280_temperature;BME280_humidity;BME280_pressure;Samples;Min_cycle;Max_cycle;Signal;HPM_P1;HPM_P2
2023/10/30 00:03:17;;;;;;;6.47;3.05;;;;;;;13.66;100.00;94190.03;5095881;28;20027;-85
2023/10/30 00:05:42;;;;;;;15.13;3.03;;;;;;;13.78;100.00;94179.81;5096026;28;20430;-86
2023/10/30 00:08:08;;;;;;;11.85;3.50;;;;;;;13.66;100.00;94188.22;5095845;28;20035;-85
2023/10/30 00:10:36;;;;;;;8.88;2.90;;;;;;;13.73;100.00;94158.88;5095795;28;20106;-85
2023/10/30 00:13:02;;;;;;;10.55;3.40;;;;;;;13.85;100.00;94172.34;5095638;28;20082;-85
2023/10/30 00:15:27;;;;;;;15.63;3.90;;;;;;;13.73;100.00;94181.75;5096049;28;20391;-85
2023/10/30 00:17:53;;;;;;;8.68;3.10;;;;;;;13.53;100.00;94195.00;5095926;28;20028;-85
2023/10/30 00:20:18;;;;;;;12.40;3.00;;;;;;;13.64;100.00;94200.88;5095988;28;20456;-85
2023/10/30 00:22:45;;;;;;;9.90;3.00;;;;;;;13.67;100.00;94160.81;5095470;28;20028;-85
2023/10/30 00:25:48;;;;;;;10.73;3.08;;;;;;;13.54;100.00;94175.50;5095695;28;20429;-85
2023/10/30 00:28:14;;;;;;;7.50;3.03;;;;;;;13.52;100.00;94187.41;5095423;28;20043;-85
2023/10/30 00:30:59;;;;;;;12.40;3.83;;;;;;;13.63;100.00;94186.16;5095966;28;20028;-85
2023/10/30 00:33:25;;;;;;;11.70;3.88;;;;;;;13.32;100.00;94194.53;5078982;28;20028;-85
2023/10/30 00:35:50;;;;;;;18.65;3.88;;;;;;;13.11;100.00;94179.09;5095549;28;20077;-85
2023/10/30 00:41:18;;;;;;;5.65;2.92;;;;;;;13.32;100.00;94165.59;5099068;28;20058;-85
2023/10/30 00:43:44;;;;;;;14.68;3.60;;;;;;;13.02;100.00;94149.22;5099677;28;20028;-85
2023/10/30 00:46:09;;;;;;;13.13;3.55;;;;;;;13.08;100.00;94152.56;5099555;28;20330;-85
2023/10/30 00:48:53;;;;;;;7.55;3.20;;;;;;;13.21;100.00;94164.22;5099750;28;20039;-85
2023/10/30 00:51:19;;;;;;;6.60;3.28;;;;;;;13.32;100.00;94159.56;5082714;28;20035;-85
2023/10/30 00:53:44;;;;;;;10.60;2.90;;;;;;;13.37;100.00;94157.63;5099442;28;20036;-85
2023/10/30 00:56:09;;;;;;;9.18;2.58;;;;;;;13.31;100.00;94153.50;5100564;28;20344;-85
2023/10/30 00:58:35;;;;;;;7.78;3.00;;;;;;;13.47;100.00;94182.22;5099377;28;20032;-85
2023/10/30 01:01:01;;;;;;;8.02;3.00;;;;;;;13.52;100.00;94190.03;5099441;28;20028;-85
2023/10/30 01:03:26;;;;;;;7.22;2.85;;;;;;;13.53;100.00;94170.53;5099126;28;20031;-85
2023/10/30 01:05:56;;;;;;;12.13;2.85;;;;;;;13.51;100.00;94157.66;5099285;28;20039;-85
2023/10/30 01:08:22;;;;;;;26.13;3.58;;;;;;;13.26;100.00;94156.22;5099257;28;20398;-85
2023/10/30 01:10:47;;;;;;;6.18;2.40;;;;;;;13.34;100.00;94147.69;5082519;28;20042;-85
2023/10/30 01:13:12;;;;;;;16.50;3.55;;;;;;;13.27;100.00;94152.53;5089462;28;20464;-85
2023/10/30 01:15:57;;;;;;;41.30;4.53;;;;;;;13.34;100.00;94179.25;5077777;28;20429;-85
2023/10/30 01:18:22;;;;;;;8.68;3.13;;;;;;;13.52;100.00;94182.13;5095943;28;20444;-85
2023/10/30 01:21:06;;;;;;;6.90;2.65;;;;;;;13.47;100.00;94182.22;5085240;28;20037;-85
2023/10/30 01:23:32;;;;;;;6.07;2.88;;;;;;;13.63;100.00;94180.91;5081256;28;20079;-85
2023/10/30 01:26:16;;;;;;;7.20;3.15;;;;;;;13.15;100.00;94176.66;5085822;28;20024;-85
2023/10/30 01:28:41;;;;;;;6.90;2.75;;;;;;;13.33;100.00;94169.78;5098824;28;20337;-84
2023/10/30 01:31:07;;;;;;;13.68;3.92;;;;;;;13.12;100.00;94143.81;5099789;28;20028;-85
2023/10/30 01:33:32;;;;;;;44.38;5.65;;;;;;;12.94;100.00;94121.75;5098622;28;20039;-84
2023/10/30 01:35:58;;;;;;;10.25;3.60;;;;;;;13.09;100.00;94151.50;5081986;28;20130;-85
2023/10/30 01:38:23;;;;;;;9.02;3.30;;;;;;;13.28;100.00;94161.97;5099808;28;20039;-85
2023/10/30 01:40:49;;;;;;;4.55;2.25;;;;;;;13.38;100.00;94164.44;5098579;28;20020;-85
2023/10/30 01:43:15;;;;;;;51.80;3.40;;;;;;;13.47;100.00;94163.78;5081822;28;20024;-85
2023/10/30 01:45:41;;;;;;;169.20;7.60;;;;;;;13.12;100.00;94145.66;5081744;28;20455;-84
2023/10/30 01:48:25;;;;;;;9.00;2.78;;;;;;;12.99;100.00;94132.19;5099528;28;20035;-85
2023/10/30 01:50:51;;;;;;;6.85;2.85;;;;;;;13.11;100.00;94123.06;5097920;28;20024;-85
2023/10/30 01:53:19;;;;;;;45.85;3.75;;;;;;;13.10;100.00;94118.88;5078276;28;20040;-84
2023/10/30 01:56:03;;;;;;;97.95;6.43;;;;;;;13.01;100.00;94130.06;5078031;28;20430;-85
2023/10/30 01:58:30;;;;;;;6.63;2.75;;;;;;;13.08;100.00;94124.44;5077900;28;20032;-85
2023/10/30 02:00:57;;;;;;;13.20;3.17;;;;;;;13.21;100.00;94101.84;5077843;28;20029;-85
2023/10/30 02:03:22;;;;;;;8.88;2.70;;;;;;;13.32;100.00;94093.78;5061410;28;20036;-84
2023/10/30 02:05:48;;;;;;;10.73;2.97;;;;;;;13.29;100.00;94098.56;5077854;28;20032;-85
2023/10/30 02:10:59;;;;;;;5.95;2.58;;;;;;;13.40;100.00;94093.09;5077796;28;20109;-84
2023/10/30 02:13:24;;;;;;;8.20;2.53;;;;;;;13.48;100.00;94097.72;5077785;28;20078;-84
2023/10/30 02:16:09;;;;;;;8.93;2.63;;;;;;;13.54;100.00;94083.38;5077676;28;20429;-84
2023/10/30 02:19:12;;;;;;;319.42;15.18;;;;;;;13.45;100.00;94087.00;5077850;28;20322;-84
2023/10/30 02:21:37;;;;;;;7.05;2.25;;;;;;;13.47;100.00;94098.78;5078647;28;20070;-84
2023/10/30 02:26:50;;;;;;;7.28;2.65;;;;;;;13.67;100.00;94092.38;5077697;28;20500;-84
2023/10/30 02:29:16;;;;;;;9.55;2.95;;;;;;;13.56;100.00;94076.00;5060808;28;20032;-84
2023/10/30 02:31:42;;;;;;;7.95;2.55;;;;;;;13.54;100.00;94087.88;5060459;28;20126;-84
2023/10/30 02:34:26;;;;;;;5.95;2.67;;;;;;;13.66;100.00;94097.91;5077465;28;20421;-84
2023/10/30 02:37:10;;;;;;;7.78;2.30;;;;;;;13.66;100.00;94108.44;5078505;28;20456;-84
2023/10/30 02:39:54;;;;;;;6.78;2.20;;;;;;;13.79;100.00;94104.25;5077464;28;20032;-84
2023/10/30 02:42:20;;;;;;;5.55;2.65;;;;;;;13.34;100.00;94075.84;5077066;28;20024;-84
2023/10/30 02:45:04;;;;;;;3.75;2.38;;;;;;;13.23;100.00;94064.75;5077028;28;20418;-84
2023/10/30 02:47:31;;;;;;;111.75;6.35;;;;;;;13.37;100.00;94070.00;5077001;28;20044;-84
2023/10/30 02:49:56;;;;;;;7.35;2.65;;;;;;;13.24;100.00;94067.06;5060511;28;20123;-84
2023/10/30 02:52:22;;;;;;;8.00;2.45;;;;;;;13.14;100.00;94057.50;5076868;28;20064;-84
2023/10/30 02:55:06;;;;;;;25.70;3.10;;;;;;;13.02;100.00;94065.09;5077089;28;20036;-84
2023/10/30 02:57:31;;;;;;;148.75;7.22;;;;;;;13.05;100.00;94061.09;5077081;28;20068;-84
2023/10/30 02:59:57;;;;;;;8.85;2.20;;;;;;;13.18;100.00;94070.88;5060528;28;20131;-84
2023/10/30 03:02:22;;;;;;;5.93;2.50;;;;;;;13.11;100.00;94089.66;5076675;28;20345;-84
2023/10/30 03:04:48;;;;;;;3.08;1.90;;;;;;;13.28;100.00;94083.03;5076115;28;20021;-84
2023/10/30 03:07:15;;;;;;;5.63;2.03;;;;;;;13.38;100.00;94080.25;5076934;28;20036;-84
2023/10/30 03:09:40;;;;;;;13.38;2.40;;;;;;;13.21;100.00;94059.75;5076803;28;20028;-84
2023/10/30 03:12:25;;;;;;;6.15;1.88;;;;;;;13.29;100.00;94064.34;5076769;28;20028;-84
2023/10/30 03:15:09;;;;;;;17.23;2.45;;;;;;;13.37;100.00;94078.69;5076561;28;20024;-84
2023/10/30 03:17:53;;;;;;;5.97;2.05;;;;;;;13.40;100.00;94072.03;5076657;28;20035;-84
2023/10/30 03:20:18;;;;;;;4.50;1.60;;;;;;;13.12;100.00;94053.59;5077479;28;20039;-84
2023/10/30 03:25:28;;;;;;;21.08;2.55;;;;;;;13.25;100.00;94065.22;5076525;28;20040;-84
2023/10/30 03:27:53;;;;;;;3.25;1.38;;;;;;;13.30;100.00;94046.69;5076132;28;20036;-84
2023/10/30 03:30:37;;;;;;;5.47;1.50;;;;;;;13.29;100.00;94058.28;5077900;28;20029;-84
2023/10/30 03:33:04;;;;;;;2.00;1.30;;;;;;;13.36;100.00;94058.72;5077260;28;20090;-84
2023/10/30 03:35:29;;;;;;;9.07;2.00;;;;;;;13.36;100.00;94053.44;5088431;28;20034;-84
2023/10/30 03:37:55;;;;;;;7.47;1.90;;;;;;;13.04;100.00;94049.78;5079363;28;20107;-84
2023/10/30 03:40:39;;;;;;;6.07;1.75;;;;;;;13.11;100.00;94057.31;5076006;28;20410;-84
2023/10/30 03:43:04;;;;;;;6.65;1.75;;;;;;;13.24;100.00;94066.28;5059440;28;20029;-84
2023/10/30 03:45:30;;;;;;;3.90;1.42;;;;;;;13.34;100.00;94066.13;5075909;28;20028;-84
2023/10/30 03:47:55;;;;;;;5.20;1.40;;;;;;;13.30;100.00;94051.97;5076375;28;20032;-83
2023/10/30 03:50:21;;;;;;;5.75;2.20;;;;;;;13.13;100.00;94048.06;5075849;28;20437;-83
2023/10/30 03:52:46;;;;;;;3.88;1.80;;;;;;;13.27;100.00;94060.44;5075540;28;20052;-84
2023/10/30 03:55:12;;;;;;;11.27;1.60;;;;;;;13.31;100.00;94052.75;5075845;28;20028;-84
2023/10/30 03:57:40;;;;;;;2.75;1.48;;;;;;;13.37;100.00;94049.75;5075980;28;20036;-84
2023/10/30 04:00:07;;;;;;;3.20;1.45;;;;;;;13.34;100.00;94041.66;5075754;28;20025;-84
2023/10/30 04:02:32;;;;;;;4.60;1.40;;;;;;;13.22;100.00;94050.03;5075615;28;20028;-84
2023/10/30 04:08:01;;;;;;;2.78;1.23;;;;;;;13.28;100.00;94065.44;5075920;28;20039;-83
2023/10/30 04:10:26;;;;;;;5.63;1.70;;;;;;;13.22;100.00;94071.84;5059130;28;20078;-84
2023/10/30 04:16:15;;;;;;;3.03;1.60;;;;;;;13.40;100.00;94064.16;5076564;28;20357;-84
2023/10/30 04:18:41;;;;;;;4.28;1.30;;;;;;;13.55;100.00;94060.47;5058910;28;20444;-84
2023/10/30 04:21:06;;;;;;;3.05;1.58;;;;;;;13.70;100.00;94054.91;5075247;28;20115;-84
2023/10/30 04:23:32;;;;;;;5.72;1.77;;;;;;;13.69;100.00;94052.56;5058879;28;20437;-84
2023/10/30 04:25:57;;;;;;;8.93;1.70;;;;;;;13.75;100.00;94064.56;5075399;28;20165;-86
2023/10/30 04:31:06;;;;;;;12.93;1.63;;;;;;;13.62;100.00;94076.66;5075457;28;20039;-86
2023/10/30 04:33:32;;;;;;;5.45;1.60;;;;;;;13.66;100.00;94082.91;5075776;28;20426;-86
2023/10/30 04:36:02;;;;;;;28.48;1.85;;;;;;;13.68;100.00;94093.91;5076821;28;20036;-86
2023/10/30 04:38:32;;;;;;;5.90;1.10;;;;;;;13.68;100.00;94091.28;5075675;28;20043;-85
2023/10/30 04:41:17;;;;;;;4.07;1.63;;;;;;;13.68;100.00;94082.59;5060010;28;20028;-85
2023/10/30 04:43:42;;;;;;;3.28;1.35;;;;;;;13.62;100.00;94087.19;5095680;28;20085;-85
2023/10/30 04:46:07;;;;;;;15.05;2.08;;;;;;;13.50;100.00;94084.28;5095665;28;20028;-86
2023/10/30 04:48:33;;;;;;;2.70;1.50;;;;;;;13.55;100.00;94089.44;5095757;28;20032;-86
2023/10/30 04:51:00;;;;;;;4.72;1.63;;;;;;;13.69;100.00;94069.16;5078559;28;20345;-86
2023/10/30 04:53:25;;;;;;;4.50;1.55;;;;;;;13.83;100.00;94076.25;5095332;28;20031;-86
2023/10/30 04:55:51;;;;;;;3.13;1.40;;;;;;;13.89;100.00;94071.66;5078760;28;20348;-86
2023/10/30 04:58:17;;;;;;;2.67;1.55;;;;;;;13.91;100.00;94064.25;5096781;28;20448;-86
2023/10/30 05:00:43;;;;;;;2.95;1.70;;;;;;;13.88;100.00;94070.88;5078320;28;20036;-86
2023/10/30 05:03:12;;;;;;;4.70;1.90;;;;;;;13.95;100.00;94060.75;5095359;28;20078;-86
2023/10/30 05:05:56;;;;;;;3.88;1.92;;;;;;;13.95;100.00;94071.28;5078806;28;20035;-86
2023/10/30 05:08:21;;;;;;;3.85;1.60;;;;;;;13.97;100.00;94063.84;5096503;28;20354;-86
2023/10/30 05:10:47;;;;;;;111.65;5.72;;;;;;;13.95;100.00;94070.47;5095117;28;20032;-85
2023/10/30 05:13:12;;;;;;;67.57;3.22;;;;;;;13.84;100.00;94056.75;5095341;28;20040;-86
2023/10/30 05:15:37;;;;;;;2.45;1.45;;;;;;;13.85;100.00;94053.03;5077035;28;20036;-85
2023/10/30 05:18:03;;;;;;;301.27;11.70;;;;;;;13.57;100.00;94043.34;5058224;28;20484;-85
2023/10/30 05:20:28;;;;;;;339.20;14.15;;;;;;;13.24;100.00;94040.00;5058435;28;20040;-86
2023/10/30 05:22:53;;;;;;;8.43;1.60;;;;;;;13.32;100.00;94028.00;5058268;28;20036;-86
2023/10/30 05:25:20;;;;;;;13.20;1.33;;;;;;;13.42;100.00;94036.47;5069420;28;20043;-86
2023/10/30 05:27:46;;;;;;;2.08;1.00;;;;;;;13.40;100.00;94033.38;5077588;28;20032;-85
2023/10/30 05:30:31;;;;;;;4.32;1.38;;;;;;;13.33;100.00;94046.13;5078765;28;20043;-86
2023/10/30 05:32:56;;;;;;;2.85;1.55;;;;;;;13.38;100.00;94047.88;5079423;28;20085;-85
2023/10/30 05:35:40;;;;;;;6.47;1.92;;;;;;;13.33;100.00;94040.09;5078477;28;20025;-85
2023/10/30 05:38:06;;;;;;;5.05;1.90;;;;;;;13.49;100.00;94035.34;5078418;28;20333;-86
2023/10/30 05:40:31;;;;;;;3.75;1.77;;;;;;;13.51;100.00;94051.63;5078120;28;20020;-85
2023/10/30 05:43:15;;;;;;;4.10;1.83;;;;;;;13.52;100.00;94034.75;5095250;28;20028;-85
2023/10/30 05:48:44;;;;;;;5.93;2.25;;;;;;;13.59;100.00;94000.16;5079431;28;20031;-85
2023/10/30 05:51:10;;;;;;;4.60;1.90;;;;;;;13.59;100.00;93997.50;5078266;28;20079;-85
2023/10/30 05:53:35;;;;;;;7.57;2.63;;;;;;;13.68;100.00;94020.22;5094806;28;20036;-85
2023/10/30 05:56:38;;;;;;;5.13;2.08;;;;;;;13.83;100.00;94028.88;5094918;28;20036;-85
2023/10/30 05:59:04;;;;;;;9.73;2.15;;;;;;;13.60;100.00;94026.16;5079199;28;20024;-85
2023/10/30 06:01:29;;;;;;;8.00;2.20;;;;;;;13.73;100.00;94016.69;5077875;28;20035;-85
2023/10/30 06:06:39;;;;;;;6.00;1.98;;;;;;;13.81;100.00;94018.63;5098333;28;20030;-85
2023/10/30 06:09:04;;;;;;;5.97;2.10;;;;;;;13.93;100.00;94026.03;5098051;28;20465;-85
2023/10/30 06:11:29;;;;;;;4.30;2.05;;;;;;;13.90;100.00;94016.06;5081286;28;20024;-85
2023/10/30 06:13:55;;;;;;;5.47;2.58;;;;;;;13.93;100.00;94010.22;5081256;28;20034;-85
2023/10/30 06:16:21;;;;;;;8.32;2.65;;;;;;;13.73;100.00;93997.47;5098467;28;20028;-86
2023/10/30 06:19:05;;;;;;;4.82;2.20;;;;;;;13.92;100.00;94013.13;5097876;28;20027;-85
2023/10/30 06:21:31;;;;;;;70.22;4.30;;;;;;;13.94;100.00;94018.88;5098844;28;20032;-85
2023/10/30 06:23:56;;;;;;;10.50;3.00;;;;;;;13.91;100.00;94011.59;5095683;28;20028;-85
2023/10/30 06:26:21;;;;;;;11.10;3.45;;;;;;;14.08;100.00;94032.03;5079003;28;20036;-85
2023/10/30 06:28:47;;;;;;;11.15;3.00;;;;;;;14.24;100.00;94020.06;5078843;28;20044;-85
2023/10/30 06:31:14;;;;;;;14.43;2.97;;;;;;;14.19;100.00;94011.50;5077549;28;20039;-85
2023/10/30 06:36:23;;;;;;;48.03;3.65;;;;;;;14.32;100.00;94029.13;5077518;28;20182;-86
2023/10/30 06:38:50;;;;;;;5.20;2.22;;;;;;;14.30;100.00;94019.94;5077483;28;20029;-85
2023/10/30 06:43:59;;;;;;;10.40;2.83;;;;;;;14.33;100.00;94022.78;5077372;28;20077;-85
2023/10/30 06:46:44;;;;;;;5.15;2.70;;;;;;;14.43;100.00;94048.09;5077294;28;20024;-85
2023/10/30 06:49:09;;;;;;;10.98;2.65;;;;;;;14.47;100.00;94043.78;5077040;28;20024;-85
2023/10/30 06:57:03;;;;;;;6.10;2.67;;;;;;;14.46;100.00;94042.22;5098366;28;20027;-85
2023/10/30 06:59:28;;;;;;;11.25;2.88;;;;;;;14.51;100.00;94042.13;5097014;28;20024;-85
2023/10/30 07:01:54;;;;;;;10.55;2.75;;;;;;;14.61;100.00;94056.13;5080278;28;20016;-86
2023/10/30 07:04:21;;;;;;;13.18;3.53;;;;;;;14.53;100.00;94037.31;5097329;28;20024;-85
2023/10/30 07:07:04;;;;;;;4.95;2.45;;;;;;;14.63;100.00;94038.16;5098152;28;20020;-85
2023/10/30 07:09:30;;;;;;;12.65;2.90;;;;;;;14.79;100.00;94054.41;5097118;28;20028;-85
2023/10/30 07:14:58;;;;;;;3.35;2.08;;;;;;;14.95;100.00;94058.22;5097954;28;20034;-86
2023/10/30 07:17:23;;;;;;;11.20;3.03;;;;;;;14.95;100.00;94071.41;5096781;28;20437;-86
2023/10/30 07:19:50;;;;;;;5.78;2.55;;;;;;;14.80;100.00;94066.53;5097879;28;20020;-85
2023/10/30 07:22:15;;;;;;;9.23;2.70;;;;;;;14.82;100.00;94064.34;5096742;28;20127;-85
2023/10/30 07:24:41;;;;;;;8.88;3.13;;;;;;;14.80;100.00;94062.03;5079672;28;20020;-86
2023/10/30 07:27:25;;;;;;;11.48;3.53;;;;;;;14.69;100.00;94055.41;5096424;28;20054;-86
2023/10/30 07:29:51;;;;;;;21.00;2.90;;;;;;;14.72;100.00;94060.13;5096565;28;20085;-85
2023/10/30 07:32:17;;;;;;;16.92;3.30;;;;;;;14.66;100.00;94063.94;5096324;28;20020;-86
2023/10/30 07:34:43;;;;;;;8.05;2.53;;;;;;;14.84;100.00;94063.00;5079600;28;20093;-86
2023/10/30 07:37:10;;;;;;;270.23;14.05;;;;;;;14.92;100.00;94053.56;5097197;28;20322;-86
2023/10/30 07:39:54;;;;;;;4.53;2.88;;;;;;;15.23;100.00;94058.06;5096307;28;20038;-86
2023/10/30 07:42:20;;;;;;;17.85;4.03;;;;;;;14.95;100.00;94031.84;5079122;28;20063;-86
2023/10/30 07:45:05;;;;;;;10.70;3.15;;;;;;;15.29;100.00;94053.44;5079516;28;20458;-85
2023/10/30 07:47:31;;;;;;;6.85;2.88;;;;;;;15.58;100.00;94051.38;5096127;28;20028;-85
2023/10/30 07:49:56;;;;;;;12.10;2.72;;;;;;;15.79;100.00;94025.94;5095790;28;20035;-86
2023/10/30 07:52:22;;;;;;;12.27;2.50;;;;;;;15.99;100.00;94028.31;5096347;28;20031;-86
2023/10/30 07:55:06;;;;;;;12.05;3.38;;;;;;;15.94;100.00;94051.16;5096038;28;20031;-85
2023/10/30 07:57:32;;;;;;;9.93;2.63;;;;;;;15.93;100.00;94041.69;5079318;28;20032;-86
2023/10/30 08:00:04;;;;;;;8.18;2.58;;;;;;;16.00;100.00;94051.78;5095070;28;20028;-86
2023/10/30 08:02:30;;;;;;;8.80;2.60;;;;;;;16.00;100.00;94041.22;5095630;28;20432;-86
2023/10/30 08:04:56;;;;;;;27.67;3.80;;;;;;;15.76;100.00;94031.03;5080285;28;20119;-86
2023/10/30 08:07:21;;;;;;;8.48;2.60;;;;;;;15.88;100.00;94033.09;5075896;28;20063;-86
2023/10/30 08:10:06;;;;;;;7.45;2.33;;;;;;;15.78;100.00;94023.59;5075559;28;20043;-86
2023/10/30 08:12:32;;;;;;;13.13;3.58;;;;;;;15.57;100.00;94002.28;5075737;28;20039;-86
2023/10/30 08:14:59;;;;;;;178.43;8.73;;;;;;;15.91;100.00;93998.16;5084195;28;20032;-85
2023/10/30 08:17:24;;;;;;;8.00;2.45;;;;;;;16.08;100.00;94014.03;5096746;28;20046;-85
2023/10/30 08:20:12;;;;;;;7.93;2.53;;;;;;;16.20;100.00;94015.28;5095675;28;20027;-85
2023/10/30 08:22:56;;;;;;;8.38;2.22;;;;;;;16.28;100.00;94009.19;5089481;28;20059;-85
2023/10/30 08:25:21;;;;;;;4.63;2.28;;;;;;;16.50;100.00;93999.53;5076932;28;20042;-85
2023/10/30 08:30:31;;;;;;;10.35;2.55;;;;;;;15.84;100.00;93998.59;5095783;28;20479;-85
2023/10/30 08:33:15;;;;;;;5.75;2.30;;;;;;;15.88;100.00;93996.13;5081235;28;20029;-85
2023/10/30 08:35:59;;;;;;;7.32;2.70;;;;;;;15.91;100.00;94003.44;5076789;28;20357;-85
2023/10/30 08:38:24;;;;;;;10.70;3.00;;;;;;;16.21;100.00;94014.97;5091785;28;20035;-85
2023/10/30 08:40:50;;;;;;;5.85;2.53;;;;;;;16.11;100.00;94000.19;5079530;28;20021;-85
2023/10/30 08:43:35;;;;;;;10.82;2.58;;;;;;;16.03;100.00;94002.81;5076729;28;20451;-85
2023/10/30 08:46:00;;;;;;;8.23;2.78;;;;;;;16.60;100.00;94009.00;5075459;28;20031;-85
2023/10/30 08:48:44;;;;;;;6.53;2.38;;;;;;;16.91;100.00;93992.13;5075284;28;20020;-85
2023/10/30 08:51:10;;;;;;;9.00;2.60;;;;;;;16.93;100.00;94003.97;5079749;28;20027;-85
2023/10/30 08:53:35;;;;;;;8.70;2.00;;;;;;;17.64;100.00;93987.78;5095342;28;20349;-85
2023/10/30 08:56:01;;;;;;;7.00;1.85;;;;;;;18.12;100.00;93996.38;5095416;28;20028;-85
2023/10/30 08:58:26;;;;;;;9.38;1.77;;;;;;;18.43;100.00;93991.75;5095362;28;20023;-85
2023/10/30 09:03:35;;;;;;;5.78;1.95;;;;;;;17.45;100.00;93986.34;5079251;28;20070;-85
2023/10/30 09:06:01;;;;;;;5.38;2.10;;;;;;;17.66;100.00;93994.31;5083635;28;20019;-85
2023/10/30 09:08:26;;;;;;;9.13;2.10;;;;;;;17.36;100.00;93989.03;5082847;28;20035;-85
2023/10/30 09:10:52;;;;;;;5.60;2.28;;;;;;;17.52;100.00;93981.31;5091419;28;20028;-85
2023/10/30 09:19:29;;;;;;;10.07;2.55;;;;;;;17.57;100.00;93972.41;5095298;28;20082;-85
2023/10/30 09:21:55;;;;;;;20.63;3.00;;;;;;;17.39;100.00;93974.38;5078640;28;20032;-85
2023/10/30 09:24:39;;;;;;;9.20;3.17;;;;;;;17.35;100.00;93982.16;5078649;28;20020;-86
2023/10/30 09:27:04;;;;;;;15.00;3.47;;;;;;;17.80;100.00;93972.88;5078740;28;20422;-86
2023/10/30 09:29:30;;;;;;;7.35;2.50;;;;;;;18.20;100.00;93978.84;5078520;28;20031;-85
2023/10/30 09:31:56;;;;;;;14.27;2.65;;;;;;;17.29;100.00;93966.81;5078426;28;20459;-86
2023/10/30 09:37:06;;;;;;;8.43;2.92;;;;;;;17.22;100.00;93978.66;5078664;28;20456;-85
2023/10/30 09:39:31;;;;;;;11.65;3.03;;;;;;;17.06;100.00;93970.47;5078422;28;20029;-85
2023/10/30 09:41:59;;;;;;;11.20;3.83;;;;;;;16.88;100.00;93967.09;5078229;28;20025;-85
2023/10/30 09:44:25;;;;;;;17.52;3.75;;;;;;;17.01;100.00;93946.81;5093695;28;20440;-85
2023/10/30 09:49:35;;;;;;;13.75;3.28;;;;;;;17.15;100.00;93969.66;5098763;28;20081;-85
2023/10/30 09:52:04;;;;;;;11.68;3.40;;;;;;;17.30;100.00;93960.41;5087559;28;20337;-86
2023/10/30 09:54:29;;;;;;;8.13;3.33;;;;;;;16.47;100.00;93945.41;5061814;28;20032;-85
2023/10/30 09:56:56;;;;;;;8.20;2.88;;;;;;;17.47;100.00;93959.53;5078299;28;20414;-85
2023/10/30 09:59:22;;;;;;;11.40;3.00;;;;;;;17.70;100.00;93941.44;5094226;28;20334;-85
2023/10/30 10:02:07;;;;;;;6.75;2.63;;;;;;;18.20;100.00;93950.44;5098192;28;20058;-85
2023/10/30 10:07:36;;;;;;;10.70;3.00;;;;;;;17.90;100.00;93944.44;5078121;28;20459;-86
2023/10/30 10:10:04;;;;;;;7.25;2.92;;;;;;;17.29;100.00;93937.69;5079048;28;20028;-86
2023/10/30 10:12:30;;;;;;;16.13;3.38;;;;;;;17.88;100.00;93947.41;5077158;28;20024;-85
2023/10/30 10:14:56;;;;;;;6.55;3.28;;;;;;;17.29;100.00;93930.50;5077713;28;20028;-85
2023/10/30 10:17:22;;;;;;;7.07;2.95;;;;;;;17.55;100.00;93937.53;5078019;28;20352;-86
2023/10/30 10:19:47;;;;;;;8.50;3.58;;;;;;;17.21;100.00;93928.66;5090016;28;20028;-85
2023/10/30 10:22:30;;;;;;;13.77;3.67;;;;;;;17.14;100.00;93931.06;5080965;28;20030;-85
2023/10/30 10:25:18;;;;;;;12.38;3.88;;;;;;;17.71;100.00;93921.81;5081037;28;20026;-85
2023/10/30 10:27:44;;;;;;;16.38;4.13;;;;;;;18.05;100.00;93898.81;5081519;28;20032;-86
2023/10/30 10:30:10;;;;;;;7.20;3.13;;;;;;;17.73;100.00;93901.09;5088154;28;20039;-85
2023/10/30 10:32:37;;;;;;;12.77;3.25;;;;;;;18.17;100.00;93892.00;5069800;28;20032;-85
2023/10/30 10:35:05;;;;;;;6.00;2.80;;;;;;;18.21;100.00;93880.41;5071533;28;20031;-86
2023/10/30 10:37:32;;;;;;;11.23;3.25;;;;;;;18.15;100.00;93871.13;5071290;28;20046;-86
2023/10/30 10:39:57;;;;;;;9.02;2.53;;;;;;;18.30;100.00;93867.09;5084310;28;20097;-86
2023/10/30 10:42:24;;;;;;;9.25;2.70;;;;;;;18.36;100.00;93881.66;5076750;28;20024;-85
2023/10/30 10:44:55;;;;;;;8.25;2.83;;;;;;;18.00;100.00;93869.81;5081752;28;20337;-86
2023/10/30 10:47:21;;;;;;;11.43;3.20;;;;;;;18.21;100.00;93880.41;5072717;28;20020;-86
2023/10/30 10:50:05;;;;;;;10.13;3.08;;;;;;;17.80;100.00;93872.19;5081697;28;20388;-85
2023/10/30 10:52:51;;;;;;;14.70;2.58;;;;;;;17.98;100.00;93871.25;5083593;28;20020;-85
2023/10/30 10:55:18;;;;;;;13.18;2.65;;;;;;;18.47;100.00;93874.06;5089248;28;20028;-85
2023/10/30 10:58:10;;;;;;;7.30;2.53;;;;;;;18.68;100.00;93846.69;5068691;28;20035;-85
2023/10/30 11:00:46;;;;;;;17.77;2.53;;;;;;;18.58;100.00;93863.81;5087755;28;20024;-85
2023/10/30 11:03:31;;;;;;;13.05;3.08;;;;;;;18.79;100.00;93847.00;5092917;28;20020;-86
2023/10/30 11:05:58;;;;;;;12.32;3.13;;;;;;;18.59;100.00;93853.97;5090968;28;20020;-85
2023/10/30 11:08:46;;;;;;;15.02;2.88;;;;;;;18.71;100.00;93851.31;5095748;28;20421;-86
2023/10/30 11:11:22;;;;;;;12.15;2.35;;;;;;;19.03;100.00;93853.44;5092515;28;20020;-86
2023/10/30 11:14:07;;;;;;;16.98;2.53;;;;;;;18.70;100.00;93863.03;5088757;28;20078;-86
2023/10/30 11:16:45;;;;;;;11.85;3.03;;;;;;;18.28;100.00;93853.34;5076771;28;20035;-86
2023/10/30 11:19:10;;;;;;;15.52;2.97;;;;;;;18.15;100.00;93857.09;5072438;28;20032;-85
2023/10/30 11:21:36;;;;;;;15.55;3.40;;;;;;;18.29;100.00;93843.53;5093168;28;20032;-86
2023/10/30 11:24:02;;;;;;;9.45;2.42;;;;;;;18.65;100.00;93831.44;5090253;28;20444;-85
2023/10/30 11:26:46;;;;;;;13.45;3.00;;;;;;;18.39;100.00;93837.81;5079678;28;20020;-85
2023/10/30 11:29:16;;;;;;;10.82;2.85;;;;;;;18.59;100.00;93832.75;5077809;28;20035;-85
2023/10/30 11:37:46;;;;;;;9.95;2.60;;;;;;;18.63;100.00;93823.78;5096666;28;20081;-85
2023/10/30 11:53:10;;;;;;;15.57;3.63;;;;;;;17.97;100.00;93806.88;5114402;27;20433;-84
2023/10/30 11:55:37;;;;;;;20.23;3.25;;;;;;;17.90;100.00;93798.69;5112991;28;20066;-84
2023/10/30 11:58:03;;;;;;;20.42;3.83;;;;;;;17.74;100.00;93801.19;5113147;28;20119;-84
2023/10/30 12:00:29;;;;;;;12.05;3.30;;;;;;;17.69;100.00;93786.25;5113259;28;20031;-84
2023/10/30 12:02:54;;;;;;;14.10;3.30;;;;;;;17.82;100.00;93797.69;5096098;28;20034;-84
2023/10/30 12:05:20;;;;;;;17.42;3.35;;;;;;;18.07;100.00;93790.59;5112869;28;20032;-84
2023/10/30 12:07:45;;;;;;;15.75;4.18;;;;;;;18.01;100.00;93786.59;5113136;28;20027;-84
2023/10/30 12:10:11;;;;;;;16.30;3.60;;;;;;;18.11;100.00;93780.09;5108878;28;20028;-84
2023/10/30 12:12:38;;;;;;;16.92;3.90;;;;;;;17.89;100.00;93768.75;5109738;28;20043;-84
2023/10/30 12:15:04;;;;;;;11.00;2.88;;;;;;;18.10;100.00;93767.97;5092760;28;20024;-84
2023/10/30 12:17:29;;;;;;;15.15;3.63;;;;;;;18.01;100.00;93769.91;5092931;28;20055;-84
2023/10/30 12:19:55;;;;;;;17.52;4.00;;;;;;;17.93;100.00;93753.78;5092781;28;20058;-84
2023/10/30 12:22:21;;;;;;;17.25;3.88;;;;;;;17.89;100.00;93755.50;5092371;28;20035;-84
2023/10/30 12:24:48;;;;;;;21.08;3.80;;;;;;;17.81;100.00;93743.16;5092540;28;20040;-84
2023/10/30 12:27:23;;;;;;;20.35;3.50;;;;;;;17.73;100.00;93736.84;5092172;28;20024;-84
2023/10/30 12:29:55;;;;;;;15.93;3.80;;;;;;;17.71;100.00;93741.66;5092620;28;20028;-84
2023/10/30 12:32:20;;;;;;;15.82;3.95;;;;;;;17.29;100.00;93731.94;5091904;28;20047;-84
2023/10/30 12:34:46;;;;;;;22.20;4.03;;;;;;;17.32;100.00;93726.00;5075409;28;20032;-84
2023/10/30 12:37:24;;;;;;;17.88;3.88;;;;;;;17.22;100.00;93721.88;5092106;28;20040;-84
2023/10/30 12:40:19;;;;;;;14.90;3.78;;;;;;;17.22;100.00;93710.53;5093535;28;20062;-86
2023/10/30 12:42:46;;;;;;;18.83;3.95;;;;;;;17.22;100.00;93721.13;5074388;28;20138;-86
2023/10/30 12:45:14;;;;;;;16.98;4.68;;;;;;;17.30;100.00;93733.50;5091893;28;20028;-86
2023/10/30 12:47:40;;;;;;;16.90;4.40;;;;;;;17.13;100.00;93713.22;5091822;28;20027;-86
2023/10/30 12:50:06;;;;;;;19.75;4.45;;;;;;;17.15;100.00;93711.06;5075074;28;20501;-86
2023/10/30 12:52:32;;;;;;;23.10;5.03;;;;;;;16.94;100.00;93708.41;5087103;28;20025;-86
2023/10/30 12:54:58;;;;;;;15.27;4.10;;;;;;;17.06;100.00;93687.28;5078503;28;20036;-86